Weeksbury, Kentucky
Current Conditions -  °F | °C
As of 12:15 PM on Friday 19 Dec 2014 (Local Time) from KPBX Reporting Station
Broken Clouds Broken Clouds  
Wind Chill: 32°   Ceiling: 1900
Heat Index: 32°   Visibility: 10mi
Dew Point: 24°   Wind: 3mph
Humidity: 70%   Direction: 330°NNW
Pressure: 30.22"   Gusts: NA
Location:  37.33°N, 82.69°W
Report Text: KPBX 191715Z AUTO 33003KT 10SM BKN019 00/M05 A3022 RMK AO2 T00021046
Loading
Personal Weather Stations






























Interactive Weather Map New forecast layout! Learn more

10-Day Weather Forecast

Advertisements
Track Severe Weather on mobile